sensor_id;sensor_type;location;lat;lon;timestamp;temperature;humidity
11656;DHT22;5884;43.618;1.438;2023-07-29T04:45:16;21.20;99.90
11656;DHT22;5884;43.618;1.438;2023-07-29T04:47:43;21.20;99.90
11656;DHT22;5884;43.618;1.438;2023-07-29T04:50:10;21.20;99.90
11656;DHT22;5884;43.618;1.438;2023-07-29T04:52:37;21.20;99.90
11656;DHT22;5884;43.618;1.438;2023-07-29T04:55:05;21.10;99.90
11656;DHT22;5884;43.618;1.438;2023-07-29T04:57:33;21.20;99.90
11656;DHT22;5884;43.618;1.438;2023-07-29T05:00:00;21.20;99.90
11656;DHT22;5884;43.618;1.438;2023-07-29T05:02:30;21.20;99.90
11656;DHT22;5884;43.618;1.438;2023-07-29T05:04:58;21.20;99.90
11656;DHT22;5884;43.618;1.438;2023-07-29T05:07:25;21.10;99.90
11656;DHT22;5884;43.618;1.438;2023-07-29T05:09:52;21.10;99.90
11656;DHT22;5884;43.618;1.438;2023-07-29T05:12:19;21.20;99.90
11656;DHT22;5884;43.618;1.438;2023-07-29T05:14:46;21.20;99.90
11656;DHT22;5884;43.618;1.438;2023-07-29T05:17:14;21.10;99.90
11656;DHT22;5884;43.618;1.438;2023-07-29T05:19:42;21.20;99.90
11656;DHT22;5884;43.618;1.438;2023-07-29T05:22:10;21.20;99.90
11656;DHT22;5884;43.618;1.438;2023-07-29T05:24:37;21.20;99.90
11656;DHT22;5884;43.618;1.438;2023-07-29T05:27:05;21.20;99.90
11656;DHT22;5884;43.618;1.438;2023-07-29T05:29:34;21.20;99.90
11656;DHT22;5884;43.618;1.438;2023-07-29T05:32:01;21.20;99.90
11656;DHT22;5884;43.618;1.438;2023-07-29T05:34:28;21.30;99.90
11656;DHT22;5884;43.618;1.438;2023-07-29T05:36:57;21.30;99.90
11656;DHT22;5884;43.618;1.438;2023-07-29T05:39:24;21.30;99.90
11656;DHT22;5884;43.618;1.438;2023-07-29T05:41:51;21.30;99.90
11656;DHT22;5884;43.618;1.438;2023-07-29T05:44:18;21.40;99.90
11656;DHT22;5884;43.618;1.438;2023-07-29T05:46:46;21.40;99.90
11656;DHT22;5884;43.618;1.438;2023-07-29T05:49:14;21.40;99.90
11656;DHT22;5884;43.618;1.438;2023-07-29T05:51:41;21.40;99.90
11656;DHT22;5884;43.618;1.438;2023-07-29T05:54:10;21.40;99.90
11656;DHT22;5884;43.618;1.438;2023-07-29T05:56:37;21.40;99.90
11656;DHT22;5884;43.618;1.438;2023-07-29T05:59:04;21.40;99.90
11656;DHT22;5884;43.618;1.438;2023-07-29T06:01:32;21.50;99.90
11656;DHT22;5884;43.618;1.438;2023-07-29T06:03:59;21.50;99.90
11656;DHT22;5884;43.618;1.438;2023-07-29T06:06:26;21.50;99.90
11656;DHT22;5884;43.618;1.438;2023-07-29T06:08:53;21.50;99.90
11656;DHT22;5884;43.618;1.438;2023-07-29T06:11:22;21.50;99.90
11656;DHT22;5884;43.618;1.438;2023-07-29T06:13:49;21.60;99.90
11656;DHT22;5884;43.618;1.438;2023-07-29T06:16:16;21.60;99.90
11656;DHT22;5884;43.618;1.438;2023-07-29T06:18:43;21.60;99.90
11656;DHT22;5884;43.618;1.438;2023-07-29T06:21:11;21.60;99.90
11656;DHT22;5884;43.618;1.438;2023-07-29T06:23:42;21.70;99.90
11656;DHT22;5884;43.618;1.438;2023-07-29T06:26:09;21.70;99.90
11656;DHT22;5884;43.618;1.438;2023-07-29T06:28:38;21.80;99.90
11656;DHT22;5884;43.618;1.438;2023-07-29T06:31:05;21.90;99.90
11656;DHT22;5884;43.618;1.438;2023-07-29T06:33:32;21.90;99.90
11656;DHT22;5884;43.618;1.438;2023-07-29T06:36:00;22.00;99.90
11656;DHT22;5884;43.618;1.438;2023-07-29T06:38:27;22.10;99.90
11656;DHT22;5884;43.618;1.438;2023-07-29T06:40:54;22.20;99.90
11656;DHT22;5884;43.618;1.438;2023-07-29T06:43:21;22.30;99.90
11656;DHT22;5884;43.618;1.438;2023-07-29T06:45:50;22.30;99.90
11656;DHT22;5884;43.618;1.438;2023-07-29T06:48:17;22.30;99.90
11656;DHT22;5884;43.618;1.438;2023-07-29T06:50:45;22.30;99.90
11656;DHT22;5884;43.618;1.438;2023-07-29T06:53:12;22.30;99.90
11656;DHT22;5884;43.618;1.438;2023-07-29T06:55:40;22.30;99.90
11656;DHT22;5884;43.618;1.438;2023-07-29T06:58:07;22.40;99.90
11656;DHT22;5884;43.618;1.438;2023-07-29T07:00:34;22.50;99.90
11656;DHT22;5884;43.618;1.438;2023-07-29T07:03:03;22.50;99.90
11656;DHT22;5884;43.618;1.438;2023-07-29T07:05:30;22.70;99.90
11656;DHT22;5884;43.618;1.438;2023-07-29T07:07:57;22.80;99.90
11656;DHT22;5884;43.618;1.438;2023-07-29T07:10:25;22.90;99.90
11656;DHT22;5884;43.618;1.438;2023-07-29T07:12:52;22.90;99.90
11656;DHT22;5884;43.618;1.438;2023-07-29T07:15:19;22.90;99.90
11656;DHT22;5884;43.618;1.438;2023-07-29T07:17:46;23.10;99.90
11656;DHT22;5884;43.618;1.438;2023-07-29T07:20:15;23.20;99.90
11656;DHT22;5884;43.618;1.438;2023-07-29T07:22:43;23.50;99.90
11656;DHT22;5884;43.618;1.438;2023-07-29T07:25:10;23.60;99.90
11656;DHT22;5884;43.618;1.438;2023-07-29T07:27:37;23.50;99.90
11656;DHT22;5884;43.618;1.438;2023-07-29T07:30:05;23.50;99.90
11656;DHT22;5884;43.618;1.438;2023-07-29T07:32:33;23.50;99.90
11656;DHT22;5884;43.618;1.438;2023-07-29T07:35:00;23.60;99.90
11656;DHT22;5884;43.618;1.438;2023-07-29T07:37:29;23.70;99.90
11656;DHT22;5884;43.618;1.438;2023-07-29T07:39:56;23.80;99.90
11656;DHT22;5884;43.618;1.438;2023-07-29T07:42:24;23.80;99.90
11656;DHT22;5884;43.618;1.438;2023-07-29T07:44:51;23.90;99.90
11656;DHT22;5884;43.618;1.438;2023-07-29T07:47:18;24.00;99.90
11656;DHT22;5884;43.618;1.438;2023-07-29T07:49:45;24.20;99.90
11656;DHT22;5884;43.618;1.438;2023-07-29T07:52:14;24.20;99.90
11656;DHT22;5884;43.618;1.438;2023-07-29T07:54:43;24.30;99.90
11656;DHT22;5884;43.618;1.438;2023-07-29T07:57:10;24.30;99.90
11656;DHT22;5884;43.618;1.438;2023-07-29T07:59:37;24.40;99.90
11656;DHT22;5884;43.618;1.438;2023-07-29T08:02:05;24.50;99.90
11656;DHT22;5884;43.618;1.438;2023-07-29T08:04:32;24.50;99.90
11656;DHT22;5884;43.618;1.438;2023-07-29T08:06:59;24.60;99.90
11656;DHT22;5884;43.618;1.438;2023-07-29T08:09:26;24.60;99.90
11656;DHT22;5884;43.618;1.438;2023-07-29T08:11:55;24.70;99.90
11656;DHT22;5884;43.618;1.438;2023-07-29T08:14:22;24.70;99.90
11656;DHT22;5884;43.618;1.438;2023-07-29T08:16:49;24.80;99.90
11656;DHT22;5884;43.618;1.438;2023-07-29T08:19:17;25.00;99.90
11656;DHT22;5884;43.618;1.438;2023-07-29T08:21:44;25.00;99.90
11656;DHT22;5884;43.618;1.438;2023-07-29T08:24:11;25.10;99.90
11656;DHT22;5884;43.618;1.438;2023-07-29T08:26:38;25.20;99.90
11656;DHT22;5884;43.618;1.438;2023-07-29T08:29:07;25.30;99.90
11656;DHT22;5884;43.618;1.438;2023-07-29T08:31:34;25.30;99.90
11656;DHT22;5884;43.618;1.438;2023-07-29T08:34:01;25.40;99.90
11656;DHT22;5884;43.618;1.438;2023-07-29T08:36:28;25.40;99.90
11656;DHT22;5884;43.618;1.438;2023-07-29T08:38:56;25.50;99.90
11656;DHT22;5884;43.618;1.438;2023-07-29T08:41:26;25.50;99.90
11656;DHT22;5884;43.618;1.438;2023-07-29T08:44:01;25.50;99.90
11656;DHT22;5884;43.618;1.438;2023-07-29T08:46:38;25.60;99.90
11656;DHT22;5884;43.618;1.438;2023-07-29T08:49:05;25.70;99.90
11656;DHT22;5884;43.618;1.438;2023-07-29T08:51:33;25.80;99.90
11656;DHT22;5884;43.618;1.438;2023-07-29T08:54:01;25.90;99.90
11656;DHT22;5884;43.618;1.438;2023-07-29T08:56:29;25.90;99.90
11656;DHT22;5884;43.618;1.438;2023-07-29T08:58:56;26.00;99.90
11656;DHT22;5884;43.618;1.438;2023-07-29T09:01:26;26.20;99.90
11656;DHT22;5884;43.618;1.438;2023-07-29T09:03:54;26.20;99.90
11656;DHT22;5884;43.618;1.438;2023-07-29T09:06:22;26.30;99.90
11656;DHT22;5884;43.618;1.438;2023-07-29T09:08:51;26.30;99.90
11656;DHT22;5884;43.618;1.438;2023-07-29T09:11:22;26.40;99.90
11656;DHT22;5884;43.618;1.438;2023-07-29T09:13:49;26.40;99.90
11656;DHT22;5884;43.618;1.438;2023-07-29T09:16:16;26.40;99.90
11656;DHT22;5884;43.618;1.438;2023-07-29T09:18:43;26.50;99.90
11656;DHT22;5884;43.618;1.438;2023-07-29T09:21:12;26.60;99.90
11656;DHT22;5884;43.618;1.438;2023-07-29T09:23:41;26.70;99.90
11656;DHT22;5884;43.618;1.438;2023-07-29T09:26:08;26.80;99.90
11656;DHT22;5884;43.618;1.438;2023-07-29T09:28:38;26.80;99.90
11656;DHT22;5884;43.618;1.438;2023-07-29T09:31:06;26.80;99.90
11656;DHT22;5884;43.618;1.438;2023-07-29T09:33:34;26.90;99.90
11656;DHT22;5884;43.618;1.438;2023-07-29T09:36:08;27.10;99.90
11656;DHT22;5884;43.618;1.438;2023-07-29T09:38:37;27.30;99.90
11656;DHT22;5884;43.618;1.438;2023-07-29T09:41:04;27.30;99.90
11656;DHT22;5884;43.618;1.438;2023-07-29T09:43:33;27.20;99.90
11656;DHT22;5884;43.618;1.438;2023-07-29T09:46:01;27.20;99.90
11656;DHT22;5884;43.618;1.438;2023-07-29T09:48:33;27.30;99.90
11656;DHT22;5884;43.618;1.438;2023-07-29T09:51:04;27.30;99.90
11656;DHT22;5884;43.618;1.438;2023-07-29T09:53:41;27.40;99.90
11656;DHT22;5884;43.618;1.438;2023-07-29T09:56:09;27.40;99.90
11656;DHT22;5884;43.618;1.438;2023-07-29T09:58:37;27.60;99.90
11656;DHT22;5884;43.618;1.438;2023-07-29T10:01:07;27.70;99.90
11656;DHT22;5884;43.618;1.438;2023-07-29T10:03:35;27.70;99.90
11656;DHT22;5884;43.618;1.438;2023-07-29T10:06:03;27.70;99.90
11656;DHT22;5884;43.618;1.438;2023-07-29T10:08:32;27.60;99.90
11656;DHT22;5884;43.618;1.438;2023-07-29T10:11:02;27.50;99.90
11656;DHT22;5884;43.618;1.438;2023-07-29T10:13:30;27.70;99.90
11656;DHT22;5884;43.618;1.438;2023-07-29T10:15:57;27.80;99.90
11656;DHT22;5884;43.618;1.438;2023-07-29T10:18:25;28.00;99.90
11656;DHT22;5884;43.618;1.438;2023-07-29T10:20:54;28.20;99.90
11656;DHT22;5884;43.618;1.438;2023-07-29T10:23:25;28.30;99.90
11656;DHT22;5884;43.618;1.438;2023-07-29T10:25:57;28.40;99.90
11656;DHT22;5884;43.618;1.438;2023-07-29T10:28:29;28.60;99.90
11656;DHT22;5884;43.618;1.438;2023-07-29T10:30:58;28.90;99.90
11656;DHT22;5884;43.618;1.438;2023-07-29T10:33:26;29.20;99.90
11656;DHT22;5884;43.618;1.438;2023-07-29T10:35:54;29.30;99.90
11656;DHT22;5884;43.618;1.438;2023-07-29T10:38:22;28.90;99.90
11656;DHT22;5884;43.618;1.438;2023-07-29T10:40:52;28.70;99.90
11656;DHT22;5884;43.618;1.438;2023-07-29T10:43:25;28.70;99.90
11656;DHT22;5884;43.618;1.438;2023-07-29T10:45:55;28.80;99.90
11656;DHT22;5884;43.618;1.438;2023-07-29T10:48:41;29.10;99.90
11656;DHT22;5884;43.618;1.438;2023-07-29T10:51:28;29.20;99.90
11656;DHT22;5884;43.618;1.438;2023-07-29T10:54:01;29.50;99.90
11656;DHT22;5884;43.618;1.438;2023-07-29T10:56:31;29.40;99.90
11656;DHT22;5884;43.618;1.438;2023-07-29T10:59:02;29.40;99.90
11656;DHT22;5884;43.618;1.438;2023-07-29T11:02:00;29.30;99.90
11656;DHT22;5884;43.618;1.438;2023-07-29T11:04:29;28.80;99.90
11656;DHT22;5884;43.618;1.438;2023-07-29T11:07:22;28.50;99.90
11656;DHT22;5884;43.618;1.438;2023-07-29T11:10:02;28.50;99.90
11656;DHT22;5884;43.618;1.438;2023-07-29T11:12:35;28.50;99.90
11656;DHT22;5884;43.618;1.438;2023-07-29T11:15:16;28.60;99.90
11656;DHT22;5884;43.618;1.438;2023-07-29T11:17:50;28.90;99.90
11656;DHT22;5884;43.618;1.438;2023-07-29T11:20:19;29.20;99.90
11656;DHT22;5884;43.618;1.438;2023-07-29T11:22:47;29.40;99.90
11656;DHT22;5884;43.618;1.438;2023-07-29T11:25:15;29.30;99.90
11656;DHT22;5884;43.618;1.438;2023-07-29T11:27:44;29.30;99.90
11656;DHT22;5884;43.618;1.438;2023-07-29T11:30:13;29.40;99.90
11656;DHT22;5884;43.618;1.438;2023-07-29T11:32:42;29.30;99.90
11656;DHT22;5884;43.618;1.438;2023-07-29T11:35:13;29.30;99.90
11656;DHT22;5884;43.618;1.438;2023-07-29T11:37:43;29.50;99.90
11656;DHT22;5884;43.618;1.438;2023-07-29T11:40:14;29.70;99.90
11656;DHT22;5884;43.618;1.438;2023-07-29T11:42:42;29.80;99.90
11656;DHT22;5884;43.618;1.438;2023-07-29T11:45:10;30.00;99.90
11656;DHT22;5884;43.618;1.438;2023-07-29T11:47:37;30.10;99.90
11656;DHT22;5884;43.618;1.438;2023-07-29T11:50:07;30.00;99.90
11656;DHT22;5884;43.618;1.438;2023-07-29T11:52:37;30.00;99.90
11656;DHT22;5884;43.618;1.438;2023-07-29T11:55:05;30.00;99.90
11656;DHT22;5884;43.618;1.438;2023-07-29T11:57:35;29.90;99.90
11656;DHT22;5884;43.618;1.438;2023-07-29T12:00:04;30.00;99.90
11656;DHT22;5884;43.618;1.438;2023-07-29T12:02:33;30.10;99.90
11656;DHT22;5884;43.618;1.438;2023-07-29T12:05:04;30.40;99.90
11656;DHT22;5884;43.618;1.438;2023-07-29T12:07:32;30.40;99.90
11656;DHT22;5884;43.618;1.438;2023-07-29T12:10:02;30.30;99.90
11656;DHT22;5884;43.618;1.438;2023-07-29T12:12:30;30.30;99.90
11656;DHT22;5884;43.618;1.438;2023-07-29T12:14:57;30.60;99.90
11656;DHT22;5884;43.618;1.438;2023-07-29T12:17:24;30.50;99.90
11656;DHT22;5884;43.618;1.438;2023-07-29T12:19:54;30.60;99.90
11656;DHT22;5884;43.618;1.438;2023-07-29T12:22:21;30.50;99.90
11656;DHT22;5884;43.618;1.438;2023-07-29T12:24:51;30.60;99.90
11656;DHT22;5884;43.618;1.438;2023-07-29T12:27:21;30.60;99.90
11656;DHT22;5884;43.618;1.438;2023-07-29T12:29:51;30.80;99.90
11656;DHT22;5884;43.618;1.438;2023-07-29T12:32:19;30.80;99.90
11656;DHT22;5884;43.618;1.438;2023-07-29T12:34:46;30.80;99.90
11656;DHT22;5884;43.618;1.438;2023-07-29T12:37:13;30.50;99.90
11656;DHT22;5884;43.618;1.438;2023-07-29T12:39:41;30.80;99.90
11656;DHT22;5884;43.618;1.438;2023-07-29T12:42:08;31.00;99.90
11656;DHT22;5884;43.618;1.438;2023-07-29T12:44:38;31.20;99.90
11656;DHT22;5884;43.618;1.438;2023-07-29T12:47:06;31.40;99.90
11656;DHT22;5884;43.618;1.438;2023-07-29T12:49:34;31.50;99.90
11656;DHT22;5884;43.618;1.438;2023-07-29T12:52:03;31.60;99.90
11656;DHT22;5884;43.618;1.438;2023-07-29T12:54:30;31.80;99.90
11656;DHT22;5884;43.618;1.438;2023-07-29T12:56:57;31.70;99.90
11656;DHT22;5884;43.618;1.438;2023-07-29T12:59:25;31.60;99.90
11656;DHT22;5884;43.618;1.438;2023-07-29T13:01:53;31.40;99.90
11656;DHT22;5884;43.618;1.438;2023-07-29T13:04:20;31.20;99.90
11656;DHT22;5884;43.618;1.438;2023-07-29T13:06:47;31.30;99.90
11656;DHT22;5884;43.618;1.438;2023-07-29T13:09:14;31.20;99.90
11656;DHT22;5884;43.618;1.438;2023-07-29T13:11:42;31.40;99.90
11656;DHT22;5884;43.618;1.438;2023-07-29T13:14:09;31.40;99.90
11656;DHT22;5884;43.618;1.438;2023-07-29T13:16:36;31.60;99.90
11656;DHT22;5884;43.618;1.438;2023-07-29T13:19:05;31.80;99.90
11656;DHT22;5884;43.618;1.438;2023-07-29T13:21:32;32.10;99.90
11656;DHT22;5884;43.618;1.438;2023-07-29T13:24:00;32.30;99.90
11656;DHT22;5884;43.618;1.438;2023-07-29T13:26:27;32.40;99.90
11656;DHT22;5884;43.618;1.438;2023-07-29T13:28:54;32.40;99.90
11656;DHT22;5884;43.618;1.438;2023-07-29T13:31:21;32.60;99.90
11656;DHT22;5884;43.618;1.438;2023-07-29T13:33:49;32.80;99.90
11656;DHT22;5884;43.618;1.438;2023-07-29T13:36:17;32.60;99.90
11656;DHT22;5884;43.618;1.438;2023-07-29T13:38:44;32.30;99.90
11656;DHT22;5884;43.618;1.438;2023-07-29T13:41:12;31.90;99.90
11656;DHT22;5884;43.618;1.438;2023-07-29T13:43:39;31.50;99.90
11656;DHT22;5884;43.618;1.438;2023-07-29T13:46:06;31.40;99.90
11656;DHT22;5884;43.618;1.438;2023-07-29T13:48:33;31.20;99.90
11656;DHT22;5884;43.618;1.438;2023-07-29T13:51:01;31.20;99.90
11656;DHT22;5884;43.618;1.438;2023-07-29T13:53:30;31.20;99.90
11656;DHT22;5884;43.618;1.438;2023-07-29T13:55:57;31.20;99.90
11656;DHT22;5884;43.618;1.438;2023-07-29T13:58:24;31.30;99.90
11656;DHT22;5884;43.618;1.438;2023-07-29T14:00:51;31.30;99.90
11656;DHT22;5884;43.618;1.438;2023-07-29T14:03:18;31.40;99.90
11656;DHT22;5884;43.618;1.438;2023-07-29T14:05:46;31.40;99.90
11656;DHT22;5884;43.618;1.438;2023-07-29T14:08:13;31.20;99.90
11656;DHT22;5884;43.618;1.438;2023-07-29T14:10:42;31.10;99.90
11656;DHT22;5884;43.618;1.438;2023-07-29T14:13:09;30.90;99.90
11656;DHT22;5884;43.618;1.438;2023-07-29T14:15:36;31.00;99.90
11656;DHT22;5884;43.618;1.438;2023-07-29T14:18:03;31.20;99.90
11656;DHT22;5884;43.618;1.438;2023-07-29T14:20:32;31.40;99.90
11656;DHT22;5884;43.618;1.438;2023-07-29T14:22:59;31.30;99.90
11656;DHT22;5884;43.618;1.438;2023-07-29T14:25:27;31.30;99.90
11656;DHT22;5884;43.618;1.438;2023-07-29T14:27:56;31.30;99.90
11656;DHT22;5884;43.618;1.438;2023-07-29T14:30:23;31.20;99.90
11656;DHT22;5884;43.618;1.438;2023-07-29T14:32:51;31.20;99.90
11656;DHT22;5884;43.618;1.438;2023-07-29T14:35:18;31.10;99.90
11656;DHT22;5884;43.618;1.438;2023-07-29T14:37:45;31.10;99.90
11656;DHT22;5884;43.618;1.438;2023-07-29T14:40:12;31.10;99.90
11656;DHT22;5884;43.618;1.438;2023-07-29T14:42:39;31.10;99.90
11656;DHT22;5884;43.618;1.438;2023-07-29T14:45:09;31.10;99.90
11656;DHT22;5884;43.618;1.438;2023-07-29T14:47:37;31.10;99.90
11656;DHT22;5884;43.618;1.438;2023-07-29T14:50:04;31.10;99.90
11656;DHT22;5884;43.618;1.438;2023-07-29T14:52:32;31.20;99.90
11656;DHT22;5884;43.618;1.438;2023-07-29T14:54:59;31.30;99.90
11656;DHT22;5884;43.618;1.438;2023-07-29T14:57:26;31.20;99.90
11656;DHT22;5884;43.618;1.438;2023-07-29T14:59:53;31.50;99.90
11656;DHT22;5884;43.618;1.438;2023-07-29T15:02:22;31.70;99.90
11656;DHT22;5884;43.618;1.438;2023-07-29T15:04:49;31.90;99.90
11656;DHT22;5884;43.618;1.438;2023-07-29T15:07:16;31.90;99.90
11656;DHT22;5884;43.618;1.438;2023-07-29T15:09:44;31.70;99.90
11656;DHT22;5884;43.618;1.438;2023-07-29T15:12:12;31.60;99.90
11656;DHT22;5884;43.618;1.438;2023-07-29T15:14:39;31.20;99.90
11656;DHT22;5884;43.618;1.438;2023-07-29T15:17:06;31.20;99.90
11656;DHT22;5884;43.618;1.438;2023-07-29T15:19:34;31.20;99.90
11656;DHT22;5884;43.618;1.438;2023-07-29T15:22:02;31.20;99.90
11656;DHT22;5884;43.618;1.438;2023-07-29T15:24:30;31.10;99.90
11656;DHT22;5884;43.618;1.438;2023-07-29T15:26:57;31.00;99.90
11656;DHT22;5884;43.618;1.438;2023-07-29T15:29:24;31.00;99.90
11656;DHT22;5884;43.618;1.438;2023-07-29T15:31:51;30.90;99.90
11656;DHT22;5884;43.618;1.438;2023-07-29T15:34:19;30.90;99.90
11656;DHT22;5884;43.618;1.438;2023-07-29T15:36:48;30.80;99.90
11656;DHT22;5884;43.618;1.438;2023-07-29T15:39:15;30.90;99.90
11656;DHT22;5884;43.618;1.438;2023-07-29T15:41:42;31.00;99.90
11656;DHT22;5884;43.618;1.438;2023-07-29T15:44:09;30.90;99.90
11656;DHT22;5884;43.618;1.438;2023-07-29T15:46:37;30.70;99.90
11656;DHT22;5884;43.618;1.438;2023-07-29T15:49:04;30.60;99.90
11656;DHT22;5884;43.618;1.438;2023-07-29T15:51:31;30.50;99.90
11656;DHT22;5884;43.618;1.438;2023-07-29T15:54:00;30.30;99.90
11656;DHT22;5884;43.618;1.438;2023-07-29T15:56:27;30.20;99.90
11656;DHT22;5884;43.618;1.438;2023-07-29T15:58:55;30.20;99.90
11656;DHT22;5884;43.618;1.438;2023-07-29T16:01:22;30.20;99.90
11656;DHT22;5884;43.618;1.438;2023-07-29T16:03:50;30.10;99.90
11656;DHT22;5884;43.618;1.438;2023-07-29T16:06:17;30.00;99.90
11656;DHT22;5884;43.618;1.438;2023-07-29T16:08:44;29.90;99.90
11656;DHT22;5884;43.618;1.438;2023-07-29T16:11:13;29.90;99.90
11656;DHT22;5884;43.618;1.438;2023-07-29T16:13:40;29.90;99.90
11656;DHT22;5884;43.618;1.438;2023-07-29T16:16:07;30.00;99.90
11656;DHT22;5884;43.618;1.438;2023-07-29T16:18:34;30.00;99.90
11656;DHT22;5884;43.618;1.438;2023-07-29T16:21:01;30.00;99.90
11656;DHT22;5884;43.618;1.438;2023-07-29T16:23:29;29.90;99.90
11656;DHT22;5884;43.618;1.438;2023-07-29T16:25:56;29.80;99.90
11656;DHT22;5884;43.618;1.438;2023-07-29T16:28:25;29.60;99.90
11656;DHT22;5884;43.618;1.438;2023-07-29T16:30:52;29.50;99.90
11656;DHT22;5884;43.618;1.438;2023-07-29T16:33:20;29.40;99.90
11656;DHT22;5884;43.618;1.438;2023-07-29T16:35:47;29.40;99.90
11656;DHT22;5884;43.618;1.438;2023-07-29T16:38:14;29.40;99.90
11656;DHT22;5884;43.618;1.438;2023-07-29T16:40:41;29.40;99.90
11656;DHT22;5884;43.618;1.438;2023-07-29T16:43:08;29.40;99.90
11656;DHT22;5884;43.618;1.438;2023-07-29T16:45:37;29.50;99.90
11656;DHT22;5884;43.618;1.438;2023-07-29T16:48:04;29.50;99.90
11656;DHT22;5884;43.618;1.438;2023-07-29T16:50:32;29.50;99.90
11656;DHT22;5884;43.618;1.438;2023-07-29T16:53:00;29.50;99.90
11656;DHT22;5884;43.618;1.438;2023-07-29T16:55:27;29.60;99.90
11656;DHT22;5884;43.618;1.438;2023-07-29T16:57:54;29.60;99.90
11656;DHT22;5884;43.618;1.438;2023-07-29T17:00:22;29.50;99.90
11656;DHT22;5884;43.618;1.438;2023-07-29T17:02:50;29.30;99.90
11656;DHT22;5884;43.618;1.438;2023-07-29T17:05:17;29.30;99.90
11656;DHT22;5884;43.618;1.438;2023-07-29T17:07:45;29.30;99.90
11656;DHT22;5884;43.618;1.438;2023-07-29T17:10:12;29.20;99.90
11656;DHT22;5884;43.618;1.438;2023-07-29T17:12:39;29.20;99.90
11656;DHT22;5884;43.618;1.438;2023-07-29T17:15:07;29.10;99.90
11656;DHT22;5884;43.618;1.438;2023-07-29T17:17:35;29.00;99.90
11656;DHT22;5884;43.618;1.438;2023-07-29T17:20:05;29.00;99.90
11656;DHT22;5884;43.618;1.438;2023-07-29T17:22:34;28.90;99.90
11656;DHT22;5884;43.618;1.438;2023-07-29T17:25:03;28.90;99.90
11656;DHT22;5884;43.618;1.438;2023-07-29T17:27:31;28.90;99.90
11656;DHT22;5884;43.618;1.438;2023-07-29T17:29:58;28.80;99.90
11656;DHT22;5884;43.618;1.438;2023-07-29T17:32:25;28.90;99.90
11656;DHT22;5884;43.618;1.438;2023-07-29T17:34:52;28.80;99.90
11656;DHT22;5884;43.618;1.438;2023-07-29T17:37:21;28.80;99.90
11656;DHT22;5884;43.618;1.438;2023-07-29T17:39:48;28.80;99.90
11656;DHT22;5884;43.618;1.438;2023-07-29T17:42:15;28.90;99.90
11656;DHT22;5884;43.618;1.438;2023-07-29T17:44:43;28.90;99.90
11656;DHT22;5884;43.618;1.438;2023-07-29T17:47:10;28.80;99.90
11656;DHT22;5884;43.618;1.438;2023-07-29T17:49:37;28.70;99.90
11656;DHT22;5884;43.618;1.438;2023-07-29T17:52:06;28.60;99.90
11656;DHT22;5884;43.618;1.438;2023-07-29T17:54:36;28.60;99.90
11656;DHT22;5884;43.618;1.438;2023-07-29T17:57:05;28.60;99.90
11656;DHT22;5884;43.618;1.438;2023-07-29T17:59:33;28.60;99.90
11656;DHT22;5884;43.618;1.438;2023-07-29T18:02:00;28.60;99.90
11656;DHT22;5884;43.618;1.438;2023-07-29T18:04:27;28.60;99.90
11656;DHT22;5884;43.618;1.438;2023-07-29T18:06:54;28.50;99.90
11656;DHT22;5884;43.618;1.438;2023-07-29T18:09:22;28.50;99.90
11656;DHT22;5884;43.618;1.438;2023-07-29T18:11:50;28.50;99.90
11656;DHT22;5884;43.618;1.438;2023-07-29T18:14:17;28.50;99.90
11656;DHT22;5884;43.618;1.438;2023-07-29T18:16:44;28.50;99.90
11656;DHT22;5884;43.618;1.438;2023-07-29T18:19:12;28.50;99.90
11656;DHT22;5884;43.618;1.438;2023-07-29T18:21:39;28.50;99.90
11656;DHT22;5884;43.618;1.438;2023-07-29T18:24:07;28.50;99.90
11656;DHT22;5884;43.618;1.438;2023-07-29T18:26:34;28.40;99.90
11656;DHT22;5884;43.618;1.438;2023-07-29T18:29:02;28.30;99.90
11656;DHT22;5884;43.618;1.438;2023-07-29T18:31:30;28.20;99.90
11656;DHT22;5884;43.618;1.438;2023-07-29T18:33:58;28.10;99.90
11656;DHT22;5884;43.618;1.438;2023-07-29T18:36:25;28.10;99.90
11656;DHT22;5884;43.618;1.438;2023-07-29T18:38:53;28.00;99.90
11656;DHT22;5884;43.618;1.438;2023-07-29T18:41:20;28.00;99.90
11656;DHT22;5884;43.618;1.438;2023-07-29T18:43:47;28.00;99.90
11656;DHT22;5884;43.618;1.438;2023-07-29T18:46:22;28.00;99.90
11656;DHT22;5884;43.618;1.438;2023-07-29T18:48:51;27.90;99.90
11656;DHT22;5884;43.618;1.438;2023-07-29T18:51:18;27.90;99.90
11656;DHT22;5884;43.618;1.438;2023-07-29T18:53:46;27.90;99.90
11656;DHT22;5884;43.618;1.438;2023-07-29T18:56:13;27.90;99.90
11656;DHT22;5884;43.618;1.438;2023-07-29T18:58:40;27.80;99.90
11656;DHT22;5884;43.618;1.438;2023-07-29T19:01:07;27.60;99.90
11656;DHT22;5884;43.618;1.438;2023-07-29T19:03:37;27.30;99.90
11656;DHT22;5884;43.618;1.438;2023-07-29T19:06:07;27.10;99.90
11656;DHT22;5884;43.618;1.438;2023-07-29T19:08:34;27.00;99.90
11656;DHT22;5884;43.618;1.438;2023-07-29T19:11:01;27.00;99.90
11656;DHT22;5884;43.618;1.438;2023-07-29T19:13:29;26.90;99.90
11656;DHT22;5884;43.618;1.438;2023-07-29T19:15:56;26.90;99.90
11656;DHT22;5884;43.618;1.438;2023-07-29T19:18:23;26.90;99.90
11656;DHT22;5884;43.618;1.438;2023-07-29T19:20:52;26.80;99.90
11656;DHT22;5884;43.618;1.438;2023-07-29T19:23:20;26.80;99.90
11656;DHT22;5884;43.618;1.438;2023-07-29T19:25:48;26.80;99.90
11656;DHT22;5884;43.618;1.438;2023-07-29T19:28:16;26.90;99.90
11656;DHT22;5884;43.618;1.438;2023-07-29T19:30:44;26.80;99.90
11656;DHT22;5884;43.618;1.438;2023-07-29T19:33:11;26.80;99.90
11656;DHT22;5884;43.618;1.438;2023-07-29T19:35:38;26.70;99.90
11656;DHT22;5884;43.618;1.438;2023-07-29T19:38:07;26.60;99.90
11656;DHT22;5884;43.618;1.438;2023-07-29T19:40:34;26.50;99.90
11656;DHT22;5884;43.618;1.438;2023-07-29T19:43:01;26.50;99.90
11656;DHT22;5884;43.618;1.438;2023-07-29T19:45:29;26.40;99.90
11656;DHT22;5884;43.618;1.438;2023-07-29T19:47:56;26.30;99.90
11656;DHT22;5884;43.618;1.438;2023-07-29T19:50:23;26.30;99.90
11656;DHT22;5884;43.618;1.438;2023-07-29T19:52:51;26.30;99.90
11656;DHT22;5884;43.618;1.438;2023-07-29T19:55:19;26.20;99.90
11656;DHT22;5884;43.618;1.438;2023-07-29T19:57:46;26.20;99.90
11656;DHT22;5884;43.618;1.438;2023-07-29T20:00:14;26.10;99.90
11656;DHT22;5884;43.618;1.438;2023-07-29T20:02:41;26.10;99.90
11656;DHT22;5884;43.618;1.438;2023-07-29T20:05:09;26.10;99.90
11656;DHT22;5884;43.618;1.438;2023-07-29T20:07:36;26.10;99.90
11656;DHT22;5884;43.618;1.438;2023-07-29T20:10:04;26.00;99.90
11656;DHT22;5884;43.618;1.438;2023-07-29T20:12:33;26.00;99.90
11656;DHT22;5884;43.618;1.438;2023-07-29T20:15:01;26.00;99.90
11656;DHT22;5884;43.618;1.438;2023-07-29T20:17:28;26.00;99.90
11656;DHT22;5884;43.618;1.438;2023-07-29T20:19:56;26.00;99.90
11656;DHT22;5884;43.618;1.438;2023-07-29T20:22:23;25.90;99.90
11656;DHT22;5884;43.618;1.438;2023-07-29T20:24:50;25.90;99.90
11656;DHT22;5884;43.618;1.438;2023-07-29T20:27:17;25.90;99.90
11656;DHT22;5884;43.618;1.438;2023-07-29T20:29:46;25.80;99.90
11656;DHT22;5884;43.618;1.438;2023-07-29T20:32:13;25.80;99.90
11656;DHT22;5884;43.618;1.438;2023-07-29T20:34:40;25.80;99.90